sensor_id;sensor_type;location;lat;lon;timestamp;pressure;altitude;pressure_sealevel;temperature;humidity
56928;BME280;60850;52.502;13.426;2023-07-13T09:28:17;100984.34;;;32.52;32.16
56928;BME280;60850;52.502;13.426;2023-07-13T09:30:51;100984.22;;;32.38;32.55
56928;BME280;60850;52.502;13.426;2023-07-13T09:33:18;100982.19;;;32.15;32.28
56928;BME280;60850;52.502;13.426;2023-07-13T09:35:45;100976.28;;;32.18;32.27
56928;BME280;60850;52.502;13.426;2023-07-13T09:38:14;100979.38;;;32.40;31.78
56928;BME280;60850;52.502;13.426;2023-07-13T09:40:49;100981.78;;;32.35;31.72
56928;BME280;60850;52.502;13.426;2023-07-13T09:43:21;100991.84;;;32.03;31.83
56928;BME280;60850;52.502;13.426;2023-07-13T09:45:48;100992.50;;;31.48;32.20
56928;BME280;60850;52.502;13.426;2023-07-13T09:48:16;100990.34;;;31.17;30.96
56928;BME280;60850;52.502;13.426;2023-07-13T09:50:44;100985.25;;;30.54;32.91
56928;BME280;60850;52.502;13.426;2023-07-13T09:53:13;100982.34;;;30.56;32.05
56928;BME280;60850;52.502;13.426;2023-07-13T09:55:44;100979.00;;;29.92;32.70
56928;BME280;60850;52.502;13.426;2023-07-13T09:58:14;100984.66;;;31.11;32.22
56928;BME280;60850;52.502;13.426;2023-07-13T10:00:56;100983.84;;;31.27;31.23
56928;BME280;60850;52.502;13.426;2023-07-13T10:03:25;100980.53;;;30.13;33.07
56928;BME280;60850;52.502;13.426;2023-07-13T10:05:53;100988.03;;;29.13;34.71
56928;BME280;60850;52.502;13.426;2023-07-13T10:08:23;100988.59;;;28.05;36.54
56928;BME280;60850;52.502;13.426;2023-07-13T10:10:58;100985.84;;;27.18;37.54
56928;BME280;60850;52.502;13.426;2023-07-13T10:13:28;100983.38;;;26.65;38.22
56928;BME280;60850;52.502;13.426;2023-07-13T10:15:59;100993.22;;;27.47;38.28
56928;BME280;60850;52.502;13.426;2023-07-13T10:18:28;100985.03;;;27.85;38.04
56928;BME280;60850;52.502;13.426;2023-07-13T10:21:08;100983.53;;;28.01;37.34
56928;BME280;60850;52.502;13.426;2023-07-13T10:23:36;100976.06;;;27.45;39.16
56928;BME280;60850;52.502;13.426;2023-07-13T10:26:12;100979.09;;;27.32;39.04
56928;BME280;60850;52.502;13.426;2023-07-13T10:28:42;100979.38;;;27.29;39.29
56928;BME280;60850;52.502;13.426;2023-07-13T10:31:15;100983.44;;;26.84;39.43
56928;BME280;60850;52.502;13.426;2023-07-13T10:33:43;100984.19;;;26.25;40.47
56928;BME280;60850;52.502;13.426;2023-07-13T10:36:14;100990.91;;;26.42;40.74
56928;BME280;60850;52.502;13.426;2023-07-13T10:38:45;100990.28;;;26.60;39.36
56928;BME280;60850;52.502;13.426;2023-07-13T10:41:16;100991.38;;;26.06;39.88
56928;BME280;60850;52.502;13.426;2023-07-13T10:43:46;101003.31;;;25.84;40.33
56928;BME280;60850;52.502;13.426;2023-07-13T10:46:18;100990.44;;;26.37;40.23
56928;BME280;60850;52.502;13.426;2023-07-13T10:48:48;100995.56;;;26.51;39.56
56928;BME280;60850;52.502;13.426;2023-07-13T10:51:18;100987.16;;;26.83;39.26
56928;BME280;60850;52.502;13.426;2023-07-13T10:53:47;100988.78;;;26.96;38.51
56928;BME280;60850;52.502;13.426;2023-07-13T10:56:29;100989.03;;;26.43;38.93
56928;BME280;60850;52.502;13.426;2023-07-13T10:59:10;100979.25;;;26.40;39.16
56928;BME280;60850;52.502;13.426;2023-07-13T11:01:49;100981.66;;;26.64;38.65
56928;BME280;60850;52.502;13.426;2023-07-13T11:04:18;100976.91;;;26.66;39.07
56928;BME280;60850;52.502;13.426;2023-07-13T11:06:48;100974.41;;;26.53;38.12
56928;BME280;60850;52.502;13.426;2023-07-13T11:09:34;100962.22;;;26.67;37.41
56928;BME280;60850;52.502;13.426;2023-07-13T11:12:08;100973.81;;;26.50;37.43
56928;BME280;60850;52.502;13.426;2023-07-13T11:14:43;100972.88;;;26.70;37.94
56928;BME280;60850;52.502;13.426;2023-07-13T11:20:31;100974.31;;;26.65;38.48
56928;BME280;60850;52.502;13.426;2023-07-13T11:23:28;100966.44;;;26.81;38.72
56928;BME280;60850;52.502;13.426;2023-07-13T11:25:55;100966.75;;;26.88;38.12
56928;BME280;60850;52.502;13.426;2023-07-13T11:28:24;100959.41;;;26.88;37.65
56928;BME280;60850;52.502;13.426;2023-07-13T11:31:01;100964.13;;;26.76;37.54
56928;BME280;60850;52.502;13.426;2023-07-13T11:33:48;100965.63;;;27.00;37.50
56928;BME280;60850;52.502;13.426;2023-07-13T11:36:19;100960.72;;;26.94;37.23
56928;BME280;60850;52.502;13.426;2023-07-13T11:38:55;100966.00;;;26.76;37.53
56928;BME280;60850;52.502;13.426;2023-07-13T11:41:26;100962.88;;;26.50;37.56
56928;BME280;60850;52.502;13.426;2023-07-13T11:44:05;100951.97;;;26.60;37.29
56928;BME280;60850;52.502;13.426;2023-07-13T11:46:32;100978.09;;;26.43;38.70
56928;BME280;60850;52.502;13.426;2023-07-13T11:48:59;100968.97;;;26.33;39.04
56928;BME280;60850;52.502;13.426;2023-07-13T11:51:29;100971.69;;;26.63;39.10
56928;BME280;60850;52.502;13.426;2023-07-13T11:54:01;100955.34;;;26.42;37.94
56928;BME280;60850;52.502;13.426;2023-07-13T11:56:29;100957.31;;;26.31;38.59
56928;BME280;60850;52.502;13.426;2023-07-13T11:59:04;100960.72;;;26.23;38.67
56928;BME280;60850;52.502;13.426;2023-07-13T12:01:31;100952.28;;;26.05;39.09
56928;BME280;60850;52.502;13.426;2023-07-13T12:04:00;100955.38;;;26.21;37.78
56928;BME280;60850;52.502;13.426;2023-07-13T12:06:31;100950.81;;;26.62;37.18
56928;BME280;60850;52.502;13.426;2023-07-13T12:09:00;100955.19;;;26.65;36.93
56928;BME280;60850;52.502;13.426;2023-07-13T12:11:29;100948.78;;;26.54;37.30
56928;BME280;60850;52.502;13.426;2023-07-13T12:13:58;100956.66;;;26.78;37.20
56928;BME280;60850;52.502;13.426;2023-07-13T12:16:30;100954.19;;;26.75;37.70
56928;BME280;60850;52.502;13.426;2023-07-13T12:19:00;100943.66;;;26.71;37.97
56928;BME280;60850;52.502;13.426;2023-07-13T12:21:32;100942.28;;;26.86;38.28
56928;BME280;60850;52.502;13.426;2023-07-13T12:24:00;100951.03;;;26.40;38.74
56928;BME280;60850;52.502;13.426;2023-07-13T12:26:30;100959.28;;;26.28;38.99
56928;BME280;60850;52.502;13.426;2023-07-13T12:29:00;100952.00;;;26.39;39.30
56928;BME280;60850;52.502;13.426;2023-07-13T12:31:34;100955.34;;;26.42;39.57
56928;BME280;60850;52.502;13.426;2023-07-13T12:34:03;100953.41;;;26.54;39.22
56928;BME280;60850;52.502;13.426;2023-07-13T12:36:36;100955.88;;;26.57;38.39
56928;BME280;60850;52.502;13.426;2023-07-13T12:39:12;100959.50;;;26.67;38.91
56928;BME280;60850;52.502;13.426;2023-07-13T12:41:40;100959.50;;;26.67;38.37
56928;BME280;60850;52.502;13.426;2023-07-13T12:44:11;100954.88;;;26.58;38.74
56928;BME280;60850;52.502;13.426;2023-07-13T12:46:39;100965.09;;;26.66;38.70
56928;BME280;60850;52.502;13.426;2023-07-13T12:49:07;100951.13;;;26.59;38.04
56928;BME280;60850;52.502;13.426;2023-07-13T12:51:38;100952.66;;;27.02;37.77
56928;BME280;60850;52.502;13.426;2023-07-13T12:54:14;100956.81;;;26.87;37.77
56928;BME280;60850;52.502;13.426;2023-07-13T12:56:42;100948.19;;;26.20;38.84
56928;BME280;60850;52.502;13.426;2023-07-13T12:59:16;100949.81;;;26.33;38.41
56928;BME280;60850;52.502;13.426;2023-07-13T13:01:46;100961.59;;;26.23;37.73
56928;BME280;60850;52.502;13.426;2023-07-13T13:04:15;100947.16;;;26.42;38.11
56928;BME280;60850;52.502;13.426;2023-07-13T13:06:48;100954.72;;;26.29;38.31
56928;BME280;60850;52.502;13.426;2023-07-13T13:09:17;100958.84;;;26.23;38.32
56928;BME280;60850;52.502;13.426;2023-07-13T13:11:45;100955.19;;;26.13;37.66
56928;BME280;60850;52.502;13.426;2023-07-13T13:14:13;100954.34;;;25.92;37.78
56928;BME280;60850;52.502;13.426;2023-07-13T13:16:46;100950.53;;;26.04;37.56
56928;BME280;60850;52.502;13.426;2023-07-13T13:19:17;100960.13;;;26.19;37.94
56928;BME280;60850;52.502;13.426;2023-07-13T13:21:45;100953.28;;;26.35;38.40
56928;BME280;60850;52.502;13.426;2023-07-13T13:24:16;100954.28;;;26.34;38.07
56928;BME280;60850;52.502;13.426;2023-07-13T13:26:44;100947.63;;;26.47;37.78
56928;BME280;60850;52.502;13.426;2023-07-13T13:29:13;100955.56;;;26.50;38.32
56928;BME280;60850;52.502;13.426;2023-07-13T13:31:41;100951.56;;;26.64;37.89
56928;BME280;60850;52.502;13.426;2023-07-13T13:34:10;100950.13;;;26.60;38.39
56928;BME280;60850;52.502;13.426;2023-07-13T13:36:37;100948.75;;;26.45;38.55
56928;BME280;60850;52.502;13.426;2023-07-13T13:39:18;100955.19;;;26.74;38.73
56928;BME280;60850;52.502;13.426;2023-07-13T13:41:46;100961.91;;;27.10;38.84
56928;BME280;60850;52.502;13.426;2023-07-13T13:44:14;100952.56;;;27.23;37.92
56928;BME280;60850;52.502;13.426;2023-07-13T13:46:42;100951.47;;;26.85;36.57
56928;BME280;60850;52.502;13.426;2023-07-13T13:49:13;100947.41;;;26.70;37.14
56928;BME280;60850;52.502;13.426;2023-07-13T13:51:41;100950.56;;;26.65;36.98
56928;BME280;60850;52.502;13.426;2023-07-13T13:54:11;100946.78;;;26.56;37.20
56928;BME280;60850;52.502;13.426;2023-07-13T13:56:41;100947.38;;;26.60;37.41
56928;BME280;60850;52.502;13.426;2023-07-13T13:59:08;100959.72;;;26.54;37.37
56928;BME280;60850;52.502;13.426;2023-07-13T14:01:35;100958.88;;;26.54;37.68
56928;BME280;60850;52.502;13.426;2023-07-13T14:04:03;100955.41;;;26.52;37.54
56928;BME280;60850;52.502;13.426;2023-07-13T14:06:31;100953.13;;;26.57;38.06
56928;BME280;60850;52.502;13.426;2023-07-13T14:08:59;100953.41;;;26.64;38.06
56928;BME280;60850;52.502;13.426;2023-07-13T14:11:26;100950.81;;;26.62;37.66
56928;BME280;60850;52.502;13.426;2023-07-13T14:13:58;100957.47;;;26.39;37.60
56928;BME280;60850;52.502;13.426;2023-07-13T14:16:27;100949.28;;;26.39;37.67
56928;BME280;60850;52.502;13.426;2023-07-13T14:18:55;100949.47;;;26.47;37.51
56928;BME280;60850;52.502;13.426;2023-07-13T14:21:26;100967.22;;;26.32;37.02
56928;BME280;60850;52.502;13.426;2023-07-13T14:23:57;100963.31;;;26.24;36.96
56928;BME280;60850;52.502;13.426;2023-07-13T14:26:25;100967.94;;;26.34;37.52
56928;BME280;60850;52.502;13.426;2023-07-13T14:28:54;100968.78;;;26.24;37.81
56928;BME280;60850;52.502;13.426;2023-07-13T14:31:25;100967.06;;;26.23;38.65
56928;BME280;60850;52.502;13.426;2023-07-13T14:33:54;100965.03;;;26.25;38.94
56928;BME280;60850;52.502;13.426;2023-07-13T14:36:27;100960.47;;;26.05;39.30
56928;BME280;60850;52.502;13.426;2023-07-13T14:38:55;100978.00;;;26.23;39.18
56928;BME280;60850;52.502;13.426;2023-07-13T14:41:22;100970.22;;;26.28;38.58
56928;BME280;60850;52.502;13.426;2023-07-13T14:43:50;100972.56;;;26.33;38.58
56928;BME280;60850;52.502;13.426;2023-07-13T14:46:26;100964.94;;;26.58;38.36
56928;BME280;60850;52.502;13.426;2023-07-13T14:49:02;100958.88;;;26.54;39.33
56928;BME280;60850;52.502;13.426;2023-07-13T14:51:30;100957.13;;;26.43;38.66
56928;BME280;60850;52.502;13.426;2023-07-13T14:54:01;100967.16;;;26.43;39.31
56928;BME280;60850;52.502;13.426;2023-07-13T14:56:28;100966.78;;;26.26;39.59
56928;BME280;60850;52.502;13.426;2023-07-13T14:58:56;100966.97;;;26.14;38.70
56928;BME280;60850;52.502;13.426;2023-07-13T15:01:23;100965.47;;;26.00;39.06
56928;BME280;60850;52.502;13.426;2023-07-13T15:03:54;100976.34;;;25.90;38.80
56928;BME280;60850;52.502;13.426;2023-07-13T15:06:21;100960.88;;;26.00;38.71
56928;BME280;60850;52.502;13.426;2023-07-13T15:08:48;100960.97;;;25.89;39.07
56928;BME280;60850;52.502;13.426;2023-07-13T15:11:15;100957.16;;;25.81;38.84
56928;BME280;60850;52.502;13.426;2023-07-13T15:13:43;100951.22;;;25.76;38.94
56928;BME280;60850;52.502;13.426;2023-07-13T15:16:16;100959.56;;;25.74;38.94
56928;BME280;60850;52.502;13.426;2023-07-13T15:18:44;100951.72;;;25.81;38.61
56928;BME280;60850;52.502;13.426;2023-07-13T15:21:15;100948.22;;;25.79;38.64
56928;BME280;60850;52.502;13.426;2023-07-13T15:23:44;100954.22;;;25.93;38.64
56928;BME280;60850;52.502;13.426;2023-07-13T15:26:12;100953.63;;;25.90;39.24
56928;BME280;60850;52.502;13.426;2023-07-13T15:28:40;100958.22;;;25.89;37.92
56928;BME280;60850;52.502;13.426;2023-07-13T15:31:18;100962.94;;;25.66;36.64
56928;BME280;60850;52.502;13.426;2023-07-13T15:33:46;100952.81;;;25.78;37.36
56928;BME280;60850;52.502;13.426;2023-07-13T15:36:16;100959.44;;;25.76;38.17
56928;BME280;60850;52.502;13.426;2023-07-13T15:38:44;100961.66;;;25.70;37.21
56928;BME280;60850;52.502;13.426;2023-07-13T15:41:17;100963.47;;;25.60;37.03
56928;BME280;60850;52.502;13.426;2023-07-13T15:43:47;100962.03;;;25.45;37.38
56928;BME280;60850;52.502;13.426;2023-07-13T15:46:14;100956.97;;;25.40;37.94
56928;BME280;60850;52.502;13.426;2023-07-13T15:48:41;100955.13;;;25.30;38.20
56928;BME280;60850;52.502;13.426;2023-07-13T15:51:12;100954.41;;;25.28;38.70
56928;BME280;60850;52.502;13.426;2023-07-13T15:53:42;100957.41;;;25.25;38.51
56928;BME280;60850;52.502;13.426;2023-07-13T15:56:18;100949.44;;;25.33;38.87
56928;BME280;60850;52.502;13.426;2023-07-13T15:58:49;100950.84;;;25.16;38.92
56928;BME280;60850;52.502;13.426;2023-07-13T16:01:17;100954.63;;;25.04;39.42
56928;BME280;60850;52.502;13.426;2023-07-13T16:03:45;100953.38;;;24.97;39.95
56928;BME280;60850;52.502;13.426;2023-07-13T16:06:17;100952.50;;;24.96;40.10
56928;BME280;60850;52.502;13.426;2023-07-13T16:08:47;100959.28;;;25.02;40.31
56928;BME280;60850;52.502;13.426;2023-07-13T16:11:18;100955.69;;;25.01;40.38
56928;BME280;60850;52.502;13.426;2023-07-13T16:13:46;100955.69;;;25.01;39.35
56928;BME280;60850;52.502;13.426;2023-07-13T16:16:17;100949.66;;;24.98;39.38
56928;BME280;60850;52.502;13.426;2023-07-13T16:18:44;100958.69;;;24.98;39.15
56928;BME280;60850;52.502;13.426;2023-07-13T16:21:12;100962.91;;;25.02;39.15
56928;BME280;60850;52.502;13.426;2023-07-13T16:23:42;100958.47;;;24.90;38.83
56928;BME280;60850;52.502;13.426;2023-07-13T16:26:23;100948.06;;;24.84;38.81
56928;BME280;60850;52.502;13.426;2023-07-13T16:28:52;100962.44;;;24.86;39.37
56928;BME280;60850;52.502;13.426;2023-07-13T16:31:29;100968.88;;;24.85;39.45
56928;BME280;60850;52.502;13.426;2023-07-13T16:33:57;100970.16;;;24.81;39.17
56928;BME280;60850;52.502;13.426;2023-07-13T16:36:25;100962.56;;;24.84;39.35
56928;BME280;60850;52.502;13.426;2023-07-13T16:38:52;100979.31;;;24.80;39.35
56928;BME280;60850;52.502;13.426;2023-07-13T16:41:21;100973.25;;;24.65;39.40
56928;BME280;60850;52.502;13.426;2023-07-13T16:43:49;100974.16;;;24.54;39.67
56928;BME280;60850;52.502;13.426;2023-07-13T16:46:21;100982.19;;;24.45;39.49
56928;BME280;60850;52.502;13.426;2023-07-13T16:48:51;100982.38;;;24.30;39.55
56928;BME280;60850;52.502;13.426;2023-07-13T16:51:17;100977.09;;;24.18;40.01
56928;BME280;60850;52.502;13.426;2023-07-13T16:53:45;100979.53;;;24.09;40.09
56928;BME280;60850;52.502;13.426;2023-07-13T16:56:18;100983.50;;;24.05;40.21
56928;BME280;60850;52.502;13.426;2023-07-13T16:58:50;100986.22;;;24.05;41.45
56928;BME280;60850;52.502;13.426;2023-07-13T17:01:20;100997.34;;;24.02;41.04
56928;BME280;60850;52.502;13.426;2023-07-13T17:03:48;101003.78;;;24.01;41.57
56928;BME280;60850;52.502;13.426;2023-07-13T17:06:23;101003.78;;;24.01;41.87
56928;BME280;60850;52.502;13.426;2023-07-13T17:08:53;101010.47;;;23.97;41.76
56928;BME280;60850;52.502;13.426;2023-07-13T17:11:21;101031.50;;;23.95;42.44
56928;BME280;60850;52.502;13.426;2023-07-13T17:13:54;101077.25;;;23.18;48.63
56928;BME280;60850;52.502;13.426;2023-07-13T17:16:21;101083.84;;;22.52;57.70
56928;BME280;60850;52.502;13.426;2023-07-13T17:18:50;101069.84;;;22.06;71.28
56928;BME280;60850;52.502;13.426;2023-07-13T17:21:17;101082.31;;;21.56;82.49
56928;BME280;60850;52.502;13.426;2023-07-13T17:23:44;101088.81;;;20.98;93.98
56928;BME280;60850;52.502;13.426;2023-07-13T17:26:12;101086.91;;;20.57;100.00
56928;BME280;60850;52.502;13.426;2023-07-13T17:28:40;101097.34;;;20.49;100.00
56928;BME280;60850;52.502;13.426;2023-07-13T17:31:12;101112.06;;;20.29;100.00
56928;BME280;60850;52.502;13.426;2023-07-13T17:33:44;101130.47;;;20.24;100.00
56928;BME280;60850;52.502;13.426;2023-07-13T17:36:14;101140.53;;;20.06;100.00
56928;BME280;60850;52.502;13.426;2023-07-13T17:38:42;101139.88;;;20.02;100.00
56928;BME280;60850;52.502;13.426;2023-07-13T17:41:12;101133.25;;;19.92;100.00
56928;BME280;60850;52.502;13.426;2023-07-13T17:43:41;101137.72;;;19.78;100.00
56928;BME280;60850;52.502;13.426;2023-07-13T17:46:14;101145.50;;;19.84;100.00
56928;BME280;60850;52.502;13.426;2023-07-13T17:48:43;101151.88;;;19.83;100.00
56928;BME280;60850;52.502;13.426;2023-07-13T17:51:16;101160.41;;;19.91;100.00
56928;BME280;60850;52.502;13.426;2023-07-13T17:53:46;101164.97;;;19.74;100.00
56928;BME280;60850;52.502;13.426;2023-07-13T17:56:14;101157.81;;;19.73;100.00
56928;BME280;60850;52.502;13.426;2023-07-13T17:58:42;101155.97;;;19.58;100.00
56928;BME280;60850;52.502;13.426;2023-07-13T18:01:10;101149.84;;;19.55;100.00
56928;BME280;60850;52.502;13.426;2023-07-13T18:03:41;101146.44;;;19.51;100.00
56928;BME280;60850;52.502;13.426;2023-07-13T18:06:12;101153.25;;;19.42;100.00
56928;BME280;60850;52.502;13.426;2023-07-13T18:08:46;101141.66;;;19.40;100.00
56928;BME280;60850;52.502;13.426;2023-07-13T18:11:13;101137.91;;;19.43;100.00
56928;BME280;60850;52.502;13.426;2023-07-13T18:13:41;101137.91;;;19.43;100.00
56928;BME280;60850;52.502;13.426;2023-07-13T18:16:20;101138.66;;;19.45;100.00
56928;BME280;60850;52.502;13.426;2023-07-13T18:18:52;101136.06;;;19.43;100.00
56928;BME280;60850;52.502;13.426;2023-07-13T18:21:19;101135.53;;;19.37;100.00
56928;BME280;60850;52.502;13.426;2023-07-13T18:23:48;101135.47;;;19.38;100.00
56928;BME280;60850;52.502;13.426;2023-07-13T18:26:16;101137.72;;;19.30;100.00
56928;BME280;60850;52.502;13.426;2023-07-13T18:28:44;101145.75;;;19.32;100.00
56928;BME280;60850;52.502;13.426;2023-07-13T18:31:16;101140.16;;;19.35;100.00
56928;BME280;60850;52.502;13.426;2023-07-13T18:33:46;101151.41;;;19.43;100.00
56928;BME280;60850;52.502;13.426;2023-07-13T18:36:16;101152.72;;;19.36;100.00
56928;BME280;60850;52.502;13.426;2023-07-13T18:38:44;101153.94;;;19.30;100.00
56928;BME280;60850;52.502;13.426;2023-07-13T18:41:12;101157.00;;;19.40;100.00
56928;BME280;60850;52.502;13.426;2023-07-13T18:43:40;101166.25;;;19.36;100.00
56928;BME280;60850;52.502;13.426;2023-07-13T18:46:12;101156.47;;;19.33;100.00
56928;BME280;60850;52.502;13.426;2023-07-13T18:48:40;101156.81;;;19.27;100.00
56928;BME280;60850;52.502;13.426;2023-07-13T18:51:09;101156.47;;;19.17;100.00
56928;BME280;60850;52.502;13.426;2023-07-13T18:53:38;101160.09;;;19.16;100.00
56928;BME280;60850;52.502;13.426;2023-07-13T18:56:06;101156.09;;;19.08;100.00
56928;BME280;60850;52.502;13.426;2023-07-13T18:58:33;101155.22;;;19.07;100.00
56928;BME280;60850;52.502;13.426;2023-07-13T19:01:02;101154.59;;;19.02;100.00
56928;BME280;60850;52.502;13.426;2023-07-13T19:03:32;101161.06;;;19.00;100.00
56928;BME280;60850;52.502;13.426;2023-07-13T19:06:01;101158.44;;;18.98;100.00
56928;BME280;60850;52.502;13.426;2023-07-13T19:08:29;101160.50;;;18.93;100.00
56928;BME280;60850;52.502;13.426;2023-07-13T19:10:58;101165.22;;;18.89;100.00
56928;BME280;60850;52.502;13.426;2023-07-13T19:13:26;101159.72;;;18.91;100.00
56928;BME280;60850;52.502;13.426;2023-07-13T19:15:54;101161.72;;;18.87;100.00
56928;BME280;60850;52.502;13.426;2023-07-13T19:18:23;101163.47;;;18.88;100.00
56928;BME280;60850;52.502;13.426;2023-07-13T19:20:53;101171.97;;;18.81;100.00
56928;BME280;60850;52.502;13.426;2023-07-13T19:23:27;101180.34;;;18.76;100.00
56928;BME280;60850;52.502;13.426;2023-07-13T19:26:01;101189.25;;;18.78;100.00
56928;BME280;60850;52.502;13.426;2023-07-13T19:28:35;101187.41;;;18.79;100.00
56928;BME280;60850;52.502;13.426;2023-07-13T19:31:03;101190.28;;;18.76;100.00
56928;BME280;60850;52.502;13.426;2023-07-13T19:33:30;101205.69;;;18.74;100.00
56928;BME280;60850;52.502;13.426;2023-07-13T19:35:57;101202.19;;;18.72;100.00
56928;BME280;60850;52.502;13.426;2023-07-13T19:38:27;101199.72;;;18.67;100.00
56928;BME280;60850;52.502;13.426;2023-07-13T19:40:53;101205.34;;;18.62;100.00
56928;BME280;60850;52.502;13.426;2023-07-13T19:43:22;101211.84;;;18.58;100.00
56928;BME280;60850;52.502;13.426;2023-07-13T19:45:49;101218.22;;;18.57;100.00
56928;BME280;60850;52.502;13.426;2023-07-13T19:48:19;101222.97;;;18.52;100.00
56928;BME280;60850;52.502;13.426;2023-07-13T19:50:47;101235.00;;;18.47;100.00
56928;BME280;60850;52.502;13.426;2023-07-13T19:53:17;101227.91;;;18.44;100.00
56928;BME280;60850;52.502;13.426;2023-07-13T19:55:46;101226.16;;;18.43;100.00
56928;BME280;60850;52.502;13.426;2023-07-13T19:58:13;101234.56;;;18.37;100.00
56928;BME280;60850;52.502;13.426;2023-07-13T20:00:41;101239.25;;;18.33;100.00
56928;BME280;60850;52.502;13.426;2023-07-13T20:03:08;101250.06;;;18.33;100.00
56928;BME280;60850;52.502;13.426;2023-07-13T20:05:36;101249.97;;;18.35;100.00
56928;BME280;60850;52.502;13.426;2023-07-13T20:08:18;101250.84;;;18.35;100.00
56928;BME280;60850;52.502;13.426;2023-07-13T20:10:48;101248.53;;;18.45;100.00
56928;BME280;60850;52.502;13.426;2023-07-13T20:13:17;101238.38;;;18.50;100.00
56928;BME280;60850;52.502;13.426;2023-07-13T20:15:48;101244.44;;;18.55;100.00
56928;BME280;60850;52.502;13.426;2023-07-13T20:18:15;101255.72;;;18.63;100.00
56928;BME280;60850;52.502;13.426;2023-07-13T20:20:44;101260.00;;;18.67;100.00
56928;BME280;60850;52.502;13.426;2023-07-13T20:23:16;101261.78;;;18.69;100.00
56928;BME280;60850;52.502;13.426;2023-07-13T20:25:44;101265.56;;;18.64;100.00
56928;BME280;60850;52.502;13.426;2023-07-13T20:28:14;101268.84;;;18.71;100.00
56928;BME280;60850;52.502;13.426;2023-07-13T20:30:42;101269.31;;;18.79;100.00
56928;BME280;60850;52.502;13.426;2023-07-13T20:33:14;101273.22;;;18.74;100.00
56928;BME280;60850;52.502;13.426;2023-07-13T20:35:43;101268.69;;;18.74;100.00
56928;BME280;60850;52.502;13.426;2023-07-13T20:38:12;101275.13;;;18.72;100.00
56928;BME280;60850;52.502;13.426;2023-07-13T20:40:40;101268.44;;;18.61;100.00
56928;BME280;60850;52.502;13.426;2023-07-13T20:43:07;101264.84;;;18.61;100.00
56928;BME280;60850;52.502;13.426;2023-07-13T20:45:35;101266.81;;;18.57;100.00
56928;BME280;60850;52.502;13.426;2023-07-13T20:48:22;101267.88;;;18.55;100.00
56928;BME280;60850;52.502;13.426;2023-07-13T20:50:51;101277.22;;;18.48;100.00
56928;BME280;60850;52.502;13.426;2023-07-13T20:53:19;101280.16;;;18.43;100.00
56928;BME280;60850;52.502;13.426;2023-07-13T20:55:45;101283.06;;;18.38;100.00
56928;BME280;60850;52.502;13.426;2023-07-13T20:58:12;101283.41;;;18.32;100.00
56928;BME280;60850;52.502;13.426;2023-07-13T21:00:40;101287.28;;;18.27;100.00
56928;BME280;60850;52.502;13.426;2023-07-13T21:03:17;101294.72;;;18.22;100.00
56928;BME280;60850;52.502;13.426;2023-07-13T21:05:46;101299.47;;;18.17;100.00
56928;BME280;60850;52.502;13.426;2023-07-13T21:08:14;101295.19;;;18.13;100.00
56928;BME280;60850;52.502;13.426;2023-07-13T21:10:41;101295.56;;;18.05;100.00
56928;BME280;60850;52.502;13.426;2023-07-13T21:13:08;101292.78;;;18.06;100.00
56928;BME280;60850;52.502;13.426;2023-07-13T21:15:37;101296.88;;;17.96;100.00
56928;BME280;60850;52.502;13.426;2023-07-13T21:18:08;101304.97;;;17.96;100.00
56928;BME280;60850;52.502;13.426;2023-07-13T21:20:41;101303.28;;;17.94;100.00
56928;BME280;60850;52.502;13.426;2023-07-13T21:23:24;101303.38;;;17.92;100.00
56928;BME280;60850;52.502;13.426;2023-07-13T21:25:51;101307.06;;;17.90;100.00
56928;BME280;60850;52.502;13.426;2023-07-13T21:28:20;101300.97;;;17.86;100.00
56928;BME280;60850;52.502;13.426;2023-07-13T21:30:47;101301.84;;;17.87;100.00
56928;BME280;60850;52.502;13.426;2023-07-13T21:33:15;101301.91;;;17.85;100.00
56928;BME280;60850;52.502;13.426;2023-07-13T21:35:45;101308.03;;;17.89;100.00
56928;BME280;60850;52.502;13.426;2023-07-13T21:38:17;101312.41;;;17.91;100.00
56928;BME280;60850;52.502;13.426;2023-07-13T21:40:47;101309.72;;;17.91;100.00
56928;BME280;60850;52.502;13.426;2023-07-13T21:43:14;101308.78;;;17.92;100.00
56928;BME280;60850;52.502;13.426;2023-07-13T21:45:42;101311.31;;;17.95;100.00
56928;BME280;60850;52.502;13.426;2023-07-13T21:48:10;101314.81;;;17.97;100.00
56928;BME280;60850;52.502;13.426;2023-07-13T21:50:39;101304.97;;;17.96;100.00
56928;BME280;60850;52.502;13.426;2023-07-13T21:53:15;101310.22;;;17.99;100.00
56928;BME280;60850;52.502;13.426;2023-07-13T21:55:43;101298.47;;;18.00;100.00
56928;BME280;60850;52.502;13.426;2023-07-13T21:58:14;101309.06;;;18.05;100.00
56928;BME280;60850;52.502;13.426;2023-07-13T22:00:42;101305.50;;;18.04;100.00
56928;BME280;60850;52.502;13.426;2023-07-13T22:03:18;101309.28;;;18.00;100.00
56928;BME280;60850;52.502;13.426;2023-07-13T22:05:46;101303.88;;;18.00;100.00
56928;BME280;60850;52.502;13.426;2023-07-13T22:08:15;101302.41;;;17.93;100.00
56928;BME280;60850;52.502;13.426;2023-07-13T22:10:42;101307.97;;;17.90;100.00
56928;BME280;60850;52.502;13.426;2023-07-13T22:13:10;101304.75;;;17.82;100.00
56928;BME280;60850;52.502;13.426;2023-07-13T22:15:37;101300.59;;;17.75;100.00
56928;BME280;60850;52.502;13.426;2023-07-13T22:18:12;101303.28;;;17.75;100.00
56928;BME280;60850;52.502;13.426;2023-07-13T22:20:39;101306.94;;;17.74;100.00